Time;durP1;ratioP1;P1;durP2;ratioP2;P2;SDS_P1;SDS_P2;PMS_P1;PMS_P2;Temp;Humidity;BMP_temperature;BMP_pressure;BME280_temperature;BME280_humidity;BME280_pressure;Samples;Min_cycle;Max_cycle;Signal;HPM_P1;HPM_P2
2020/12/24 00:06:02;;;;;;;41;33.3;;;;;;;5.45;88.32129;98066.22;;;;
2020/12/24 00:16:01;;;;;;;36.3;31.2;;;;;;;5.4;87.98828;98068.98;;;;
2020/12/24 00:25:59;;;;;;;29.4;26.3;;;;;;;5.33;88.19531;98057.84;;;;
2020/12/24 00:35:57;;;;;;;33.1;29.6;;;;;;;5.34;88.64355;98052.22;;;;
2020/12/24 00:45:56;;;;;;;34;30.3;;;;;;;5.34;88.50879;98030.05;;;;
2020/12/24 00:55:54;;;;;;;33.1;29.5;;;;;;;5.51;88.00098;98031.16;;;;
2020/12/24 01:05:53;;;;;;;38.3;33.7;;;;;;;5.54;87.89551;98014.54;;;;
2020/12/24 01:15:51;;;;;;;39.6;33.5;;;;;;;5.63;88.16895;98009.33;;;;
2020/12/24 01:25:50;;;;;;;46.5;38;;;;;;;5.73;87.7998;98006.5;;;;
2020/12/24 01:35:48;;;;;;;35.9;30.2;;;;;;;5.68;87.5127;98003.92;;;;
2020/12/24 01:45:53;;;;;;;30;24.9;;;;;;;5.68;88.31348;97982.53;;;;
2020/12/24 01:55:49;;;;;;;39.1;29.8;;;;;;;5.77;88.97461;97979.98;;;;
2020/12/24 02:05:43;;;;;;;39.6;31.5;;;;;;;6.31;91.82324;97944.63;;;;
2020/12/24 02:15:42;;;;;;;41.1;33.1;;;;;;;6.44;88.42285;97947.31;;;;
2020/12/24 02:25:40;;;;;;;35.2;31.4;;;;;;;6.14;87.41504;97955.89;;;;
2020/12/24 02:35:39;;;;;;;38.7;34.7;;;;;;;6.13;87.33398;97950.82;;;;
2020/12/24 02:45:37;;;;;;;29.6;26.4;;;;;;;6.11;87.71973;97947.66;;;;
2020/12/24 02:55:36;;;;;;;34.2;30.2;;;;;;;6.27;87.6875;97957.8;;;;
2020/12/24 03:05:34;;;;;;;31.2;27.9;;;;;;;6.33;88.2666;97955.81;;;;
2020/12/24 03:25:31;;;;;;;28.9;26;;;;;;;6.41;87.81445;97949.78;;;;
2020/12/24 03:35:30;;;;;;;11.9;8.5;;;;;;;7.19;91.67383;97932.67;;;;
2020/12/24 03:45:28;;;;;;;9.3;6.4;;;;;;;7.92;90.45703;97927.75;;;;
2020/12/24 03:55:28;;;;;;;6.5;4.1;;;;;;;8.41;88.93555;97923.31;;;;
2020/12/24 04:05:25;;;;;;;5.4;3.6;;;;;;;8.84;87.04297;97932.34;;;;
2020/12/24 04:15:24;;;;;;;22.4;19.1;;;;;;;8.55;85.43848;97945.49;;;;
2020/12/24 04:25:23;;;;;;;14.8;10.4;;;;;;;8.38;85.875;97919.36;;;;
2020/12/24 04:35:23;;;;;;;2.8;1.7;;;;;;;8.48;85.72656;97911.03;;;;
2020/12/24 04:45:21;;;;;;;3.3;1.9;;;;;;;8.4;85.71094;97932.48;;;;
2020/12/24 04:55:19;;;;;;;4.7;2.9;;;;;;;8.25;85.06543;97914.85;;;;
2020/12/24 05:05:18;;;;;;;4.9;3;;;;;;;8.43;84.13672;97907.7;;;;
2020/12/24 05:15:17;;;;;;;7.8;3.7;;;;;;;8.46;83.70703;97910.56;;;;
2020/12/24 05:25:19;;;;;;;4.2;2.8;;;;;;;8.46;83.17871;97901.7;;;;
2020/12/24 05:35:14;;;;;;;9;5.2;;;;;;;8.41;83.21484;97883.03;;;;
2020/12/24 05:45:13;;;;;;;9.2;4.3;;;;;;;8.39;83.00977;97896.79;;;;
2020/12/24 05:55:12;;;;;;;4.8;3.2;;;;;;;8.42;82.9248;97900.73;;;;
2020/12/24 06:05:10;;;;;;;7.3;4.2;;;;;;;8.36;82.7793;97883.19;;;;
2020/12/24 06:15:09;;;;;;;5.4;3.2;;;;;;;8.34;83.32422;97917.59;;;;
2020/12/24 06:25:08;;;;;;;8.3;4.6;;;;;;;7.96;84.21387;97911.84;;;;
2020/12/24 06:35:07;;;;;;;7.5;4.7;;;;;;;7.83;84.12207;97893.92;;;;
2020/12/24 06:45:05;;;;;;;6.2;3.5;;;;;;;7.71;84.47949;97891.79;;;;
2020/12/24 06:55:04;;;;;;;7.3;4.2;;;;;;;7.92;83.60352;97890.19;;;;
2020/12/24 07:05:03;;;;;;;6.3;4.4;;;;;;;7.93;83.50293;97912.45;;;;
2020/12/24 07:15:01;;;;;;;8.7;3.7;;;;;;;8.21;82.40332;97918.45;;;;
2020/12/24 07:25:00;;;;;;;7.6;4.9;;;;;;;8.53;81.66895;97902.05;;;;
2020/12/24 07:34:59;;;;;;;8.3;5.7;;;;;;;8.73;81.13379;97888.05;;;;
2020/12/24 07:44:57;;;;;;;9.9;4.9;;;;;;;8.97;79.69824;97888.42;;;;
2020/12/24 07:54:56;;;;;;;6.1;4.4;;;;;;;9.06;79.78027;97883.84;;;;
2020/12/24 08:04:55;;;;;;;9.7;5.7;;;;;;;9.14;79.5127;97878.79;;;;
2020/12/24 08:14:54;;;;;;;7.7;5.5;;;;;;;9.25;79.01465;97882.75;;;;
2020/12/24 08:24:53;;;;;;;7.8;6.4;;;;;;;9.29;79.42969;97876.44;;;;
2020/12/24 08:34:51;;;;;;;8.6;5.7;;;;;;;9.34;79.33789;97887.02;;;;
2020/12/24 08:44:57;;;;;;;10.4;5.8;;;;;;;9.34;79.42676;97875.47;;;;
2020/12/24 08:55:02;;;;;;;9.2;6.6;;;;;;;9.39;79.06543;97886.09;;;;
2020/12/24 09:04:55;;;;;;;8.8;5.5;;;;;;;9.38;79.02832;97871.05;;;;
2020/12/24 09:15:02;;;;;;;9.5;6;;;;;;;9.48;79.42773;97876.11;;;;
2020/12/24 09:24:50;;;;;;;7.8;4.2;;;;;;;9.48;80.46289;97889.55;;;;
2020/12/24 09:34:45;;;;;;;13.7;5.3;;;;;;;9.4;81.87695;97898.44;;;;
2020/12/24 09:44:44;;;;;;;9.6;5.9;;;;;;;9.24;83.41895;97897.3;;;;
2020/12/24 09:54:43;;;;;;;8.5;5;;;;;;;9.13;84.78809;97896.05;;;;
2020/12/24 10:04:42;;;;;;;12.7;6.3;;;;;;;9.15;84.81543;97894.62;;;;
2020/12/24 10:14:41;;;;;;;8.3;5.9;;;;;;;9.1;85.04102;97886.69;;;;
2020/12/24 10:24:40;;;;;;;9.1;6.2;;;;;;;9.02;85.19434;97877.5;;;;
2020/12/24 10:34:39;;;;;;;11.8;7.3;;;;;;;8.89;85.3252;97874.95;;;;
2020/12/24 10:44:38;;;;;;;10.1;7.6;;;;;;;8.84;85.88672;97872.44;;;;
2020/12/24 10:54:36;;;;;;;14.5;9.4;;;;;;;8.67;85.96484;97854.38;;;;
2020/12/24 11:04:35;;;;;;;12;6.6;;;;;;;8.62;86.05762;97865.27;;;;
2020/12/24 11:14:34;;;;;;;7.8;4.5;;;;;;;8.54;86.4541;97847.22;;;;
2020/12/24 11:24:33;;;;;;;9;3.8;;;;;;;8.43;85.68262;97832.52;;;;
2020/12/24 11:34:32;;;;;;;6.6;4;;;;;;;8.38;85.24805;97809.28;;;;
2020/12/24 11:44:31;;;;;;;8.3;5.1;;;;;;;8.28;85.28516;97801.52;;;;
2020/12/24 11:54:30;;;;;;;7.9;4.6;;;;;;;8.29;84.30176;97784.31;;;;
2020/12/24 12:04:28;;;;;;;6.4;4.4;;;;;;;8.2;83.8584;97780.77;;;;
2020/12/24 12:14:27;;;;;;;8.3;4.2;;;;;;;8.15;83.45605;97775.55;;;;
2020/12/24 12:24:26;;;;;;;10.7;3.5;;;;;;;7.99;83.5957;97764.44;;;;
2020/12/24 12:34:26;;;;;;;8.2;4.6;;;;;;;7.92;83.16699;97766.78;;;;
2020/12/24 12:44:23;;;;;;;7.7;4.5;;;;;;;7.85;82.24512;97760.27;;;;
2020/12/24 12:54:22;;;;;;;12.4;8.7;;;;;;;7.72;82.92676;97766.53;;;;
2020/12/24 13:04:21;;;;;;;11.3;6.5;;;;;;;7.58;83.7627;97770.09;;;;
2020/12/24 13:14:19;;;;;;;12;6.5;;;;;;;7.47;84.02148;97760.73;;;;
2020/12/24 13:24:18;;;;;;;11.5;6.9;;;;;;;7.37;84.58203;97746.79;;;;
2020/12/24 13:34:17;;;;;;;14.1;8.9;;;;;;;7.34;84.46484;97726.76;;;;
2020/12/24 13:44:15;;;;;;;10.5;6.6;;;;;;;7.27;84.92969;97658.61;;;;
2020/12/24 13:54:14;;;;;;;11.4;7.4;;;;;;;7.31;84.91602;97702.46;;;;
2020/12/24 14:04:12;;;;;;;15;13.1;;;;;;;7.14;85.6084;97708.52;;;;
2020/12/24 14:14:11;;;;;;;18.5;14.9;;;;;;;7.06;86.12793;97712.72;;;;
2020/12/24 14:24:10;;;;;;;24.8;15.7;;;;;;;7.05;86.25098;97697.73;;;;
2020/12/24 14:34:08;;;;;;;14.1;7.8;;;;;;;7;84.75586;97681.8;;;;
2020/12/24 14:44:07;;;;;;;8.9;5.6;;;;;;;7.01;83.80859;97669.97;;;;
2020/12/24 14:54:05;;;;;;;13.1;7.5;;;;;;;6.97;84.60547;97698.49;;;;
2020/12/24 15:04:06;;;;;;;9.2;6.1;;;;;;;6.92;84.09082;97676.38;;;;
2020/12/24 15:14:03;;;;;;;10;8.6;;;;;;;6.84;84.44336;97669.07;;;;
2020/12/24 15:24:01;;;;;;;18.8;13.2;;;;;;;6.88;83.58203;97692.27;;;;
2020/12/24 15:34:00;;;;;;;17.6;14.1;;;;;;;6.81;83.32227;97699.14;;;;
2020/12/24 15:43:58;;;;;;;14.2;10.7;;;;;;;6.76;79.68262;97672.5;;;;
2020/12/24 15:53:57;;;;;;;13.6;9.7;;;;;;;6.76;78.55566;97659.91;;;;
2020/12/24 16:03:55;;;;;;;9.9;7.7;;;;;;;6.66;76.24609;97644.09;;;;
2020/12/24 16:13:54;;;;;;;13.2;9.5;;;;;;;6.54;76.64844;97647.3;;;;
2020/12/24 16:23:52;;;;;;;12.9;7.9;;;;;;;6.4;77.20605;97657.27;;;;
2020/12/24 16:33:51;;;;;;;13.9;8.9;;;;;;;6.12;78.21582;97661.11;;;;
2020/12/24 16:43:51;;;;;;;12;8.7;;;;;;;5.99;79.41992;97657.39;;;;
2020/12/24 16:53:49;;;;;;;9.6;6.7;;;;;;;5.86;79.57422;97666.23;;;;
2020/12/24 17:03:46;;;;;;;14.2;8.1;;;;;;;5.97;78.37988;97659.55;;;;
2020/12/24 17:13:45;;;;;;;13;6.6;;;;;;;5.72;78.03125;97641.36;;;;
2020/12/24 17:23:43;;;;;;;12.7;7.7;;;;;;;5.4;78.75488;97634.23;;;;
2020/12/24 17:33:41;;;;;;;9.9;7.3;;;;;;;5.27;78.75293;97645.72;;;;
2020/12/24 17:43:40;;;;;;;9.6;6.2;;;;;;;5.33;79.29785;97646.41;;;;
2020/12/24 17:53:38;;;;;;;8.4;5.1;;;;;;;5;81.14063;97649.13;;;;
2020/12/24 18:03:38;;;;;;;11.7;7.7;;;;;;;4.77;82.12012;97665.28;;;;
2020/12/24 18:13:35;;;;;;;17.2;10.8;;;;;;;4.65;83.47363;97648.95;;;;
2020/12/24 18:23:33;;;;;;;15.2;10.1;;;;;;;4.68;83.80078;97651.03;;;;
2020/12/24 18:33:32;;;;;;;9.1;6.3;;;;;;;4.7;83.45117;97646.98;;;;
2020/12/24 18:43:30;;;;;;;7.1;4.8;;;;;;;4.58;83.94824;97643.2;;;;
2020/12/24 18:53:28;;;;;;;11.3;6.4;;;;;;;4.48;84.01855;97638.79;;;;
2020/12/24 19:03:27;;;;;;;9.2;6.2;;;;;;;4.49;83.7998;97627.84;;;;
2020/12/24 19:13:25;;;;;;;9.4;5.3;;;;;;;4.39;83.79004;97635.21;;;;
2020/12/24 19:23:23;;;;;;;11.6;5.6;;;;;;;4.34;84.14551;97629.97;;;;
2020/12/24 19:33:22;;;;;;;9.1;5.5;;;;;;;4.64;83.51855;97648.16;;;;
2020/12/24 19:43:20;;;;;;;23.9;10.1;;;;;;;4.81;82.95996;97640.39;;;;
2020/12/24 19:53:18;;;;;;;15.7;7;;;;;;;4.98;82.4502;97659.31;;;;
2020/12/24 20:03:17;;;;;;;9.7;5.1;;;;;;;5.26;81.23242;97664.7;;;;
2020/12/24 20:13:15;;;;;;;12.1;5.8;;;;;;;5.38;80.04199;97657.77;;;;
2020/12/24 20:23:13;;;;;;;7;4.7;;;;;;;5.51;79.2207;97661.55;;;;
2020/12/24 20:33:12;;;;;;;9.8;6.1;;;;;;;5.35;78.79004;97655.7;;;;
2020/12/24 20:43:10;;;;;;;11.4;7;;;;;;;5.18;79.30469;97655.48;;;;
2020/12/24 20:53:08;;;;;;;10.8;6.4;;;;;;;5.21;79.34277;97660.23;;;;
2020/12/24 21:03:08;;;;;;;7.1;5.3;;;;;;;5.37;78.77051;97648.2;;;;
2020/12/24 21:13:05;;;;;;;8;4.2;;;;;;;5.48;77.97852;97673.61;;;;
2020/12/24 21:23:03;;;;;;;8.3;5.5;;;;;;;5.51;78.3291;97669.58;;;;
2020/12/24 21:33:02;;;;;;;7.2;4.3;;;;;;;5.62;78.20313;97672.84;;;;
2020/12/24 21:43:00;;;;;;;8.2;5.6;;;;;;;5.62;78.53809;97672.84;;;;
2020/12/24 21:52:59;;;;;;;6.7;4.9;;;;;;;5.74;78.09082;97683.81;;;;
2020/12/24 22:02:58;;;;;;;11.5;5.2;;;;;;;5.76;78.27246;97678.98;;;;
2020/12/24 22:12:55;;;;;;;10.6;6.2;;;;;;;5.68;78.24805;97667.09;;;;
2020/12/24 22:22:54;;;;;;;12.6;6.1;;;;;;;5.8;78.03516;97674.59;;;;
2020/12/24 22:32:52;;;;;;;11.9;6.5;;;;;;;5.72;78.10938;97660.06;;;;
2020/12/24 22:42:51;;;;;;;9.6;6.5;;;;;;;5.8;78.0459;97667.38;;;;
2020/12/24 22:52:50;;;;;;;6.6;3.6;;;;;;;5.99;76.46289;97657.39;;;;
2020/12/24 23:02:54;;;;;;;6.1;4;;;;;;;6.13;76.38574;97673.41;;;;
2020/12/24 23:12:46;;;;;;;9.3;4.7;;;;;;;5.78;79.16895;97709.66;;;;
2020/12/24 23:22:44;;;;;;;7.9;4;;;;;;;5.03;80.44727;97741.99;;;;
2020/12/24 23:32:43;;;;;;;7.6;4.8;;;;;;;4.6;82.83008;97761.09;;;;
2020/12/24 23:42:41;;;;;;;8.5;4;;;;;;;4.28;82.2373;97785.8;;;;
2020/12/24 23:52:39;;;;;;;6.8;4.7;;;;;;;4.09;82.37891;97793.77;;;;
